Time;durP1;ratioP1;P1;durP2;ratioP2;P2;SDS_P1;SDS_P2;PMS_P1;PMS_P2;Temp;Humidity;BMP_temperature;BMP_pressure;BME280_temperature;BME280_humidity;BME280_pressure;Samples;Min_cycle;Max_cycle;Signal;HPM_P1;HPM_P2
2022/05/08 00:02:16;;;;;;;34.33;6.03;;;8.70;99.90;;;;;;4800836;30;20116;-54
2022/05/08 00:04:41;;;;;;;30.45;6.38;;;9.00;99.90;;;;;;4799031;30;20058;-54
2022/05/08 00:07:07;;;;;;;32.65;5.53;;;8.70;99.90;;;;;;4800234;29;20044;-54
2022/05/08 00:09:34;;;;;;;28.85;5.10;;;;;;;;;;4800117;30;20043;-55
2022/05/08 00:11:59;;;;;;;28.92;6.03;;;8.40;99.90;;;;;;4800624;30;20085;-54
2022/05/08 00:14:25;;;;;;;34.90;6.22;;;8.30;99.90;;;;;;4799188;30;20057;-55
2022/05/08 00:16:51;;;;;;;28.38;5.85;;;8.60;99.90;;;;;;4800462;30;20275;-54
2022/05/08 00:19:17;;;;;;;40.53;6.00;;;8.40;99.90;;;;;;4800236;29;20043;-54
2022/05/08 00:21:43;;;;;;;29.73;5.55;;;8.20;99.90;;;;;;4799119;30;20058;-55
2022/05/08 00:24:08;;;;;;;23.27;5.72;;;8.40;99.90;;;;;;4800219;30;20114;-53
2022/05/08 00:26:34;;;;;;;27.25;5.40;;;;;;;;;;4799670;30;20062;-53
2022/05/08 00:29:00;;;;;;;35.78;6.47;;;;;;;;;;4799193;30;20049;-54
2022/05/08 00:31:26;;;;;;;27.67;5.53;;;8.40;99.90;;;;;;4799021;30;20069;-54
2022/05/08 00:33:52;;;;;;;25.48;5.25;;;8.20;99.90;;;;;;4799675;30;20309;-55
2022/05/08 00:36:18;;;;;;;27.88;5.78;;;8.40;99.90;;;;;;4799325;29;20047;-54
2022/05/08 00:38:44;;;;;;;39.75;6.93;;;7.70;99.90;;;;;;4799868;29;20043;-55
2022/05/08 00:41:10;;;;;;;31.77;6.07;;;8.60;99.90;;;;;;4799921;30;20279;-55
2022/05/08 00:43:38;;;;;;;31.17;5.68;;;8.70;99.90;;;;;;4799878;29;20047;-53
2022/05/08 00:46:13;;;;;;;33.30;6.40;;;8.10;99.90;;;;;;4798630;30;20090;-51
2022/05/08 00:48:41;;;;;;;33.38;6.20;;;8.00;99.90;;;;;;4799648;30;20054;-52
2022/05/08 00:51:15;;;;;;;29.05;6.03;;;8.00;99.90;;;;;;4799979;30;20047;-57
2022/05/08 00:53:44;;;;;;;25.35;6.00;;;7.70;99.90;;;;;;4783495;30;20063;-53
2022/05/08 00:56:12;;;;;;;31.33;5.70;;;7.90;99.90;;;;;;4799530;30;20104;-53
2022/05/08 00:58:39;;;;;;;28.00;6.07;;;8.00;99.90;;;;;;4799380;30;20058;-54
2022/05/08 01:01:06;;;;;;;33.38;5.85;;;7.90;99.90;;;;;;4787594;30;20229;-55
2022/05/08 01:03:32;;;;;;;33.72;7.00;;;8.00;99.90;;;;;;4773367;30;20047;-54
2022/05/08 01:06:03;;;;;;;32.33;5.97;;;8.00;99.90;;;;;;4763471;30;20047;-51
2022/05/08 01:08:29;;;;;;;29.63;6.50;;;;;;;;;;4862241;24;20027;-63
2022/05/08 01:10:55;;;;;;;35.50;6.47;;;8.00;99.90;;;;;;4772314;30;20082;-65
2022/05/08 01:13:21;;;;;;;32.92;6.68;;;;;;;;;;4771993;30;20496;-66
2022/05/08 01:15:48;;;;;;;30.63;6.88;;;8.00;99.90;;;;;;4771920;30;20056;-63
2022/05/08 01:18:15;;;;;;;32.42;6.53;;;7.80;99.90;;;;;;4771851;30;20127;-64
2022/05/08 01:20:43;;;;;;;26.25;5.97;;;8.00;99.90;;;;;;4770662;30;20334;-62
2022/05/08 01:23:10;;;;;;;22.52;5.38;;;7.60;99.90;;;;;;4771813;30;20102;-62
2022/05/08 01:25:53;;;;;;;26.83;6.65;;;7.80;99.90;;;;;;4772144;30;20059;-62
2022/05/08 01:28:20;;;;;;;22.85;5.95;;;7.60;99.90;;;;;;4755436;30;20056;-62
2022/05/08 01:30:48;;;;;;;30.60;6.28;;;7.70;99.90;;;;;;4771885;30;20056;-62
2022/05/08 01:33:14;;;;;;;31.48;6.18;;;7.40;99.90;;;;;;4771593;30;20047;-63
2022/05/08 01:35:41;;;;;;;27.50;6.28;;;7.80;99.90;;;;;;4771569;30;20055;-63
2022/05/08 01:38:08;;;;;;;20.92;5.20;;;7.40;99.90;;;;;;4771556;30;20059;-63
2022/05/08 01:40:34;;;;;;;33.35;6.53;;;7.70;99.90;;;;;;4771224;30;20492;-63
2022/05/08 01:43:00;;;;;;;30.48;6.35;;;;;;;;;;4755234;30;20062;-63
2022/05/08 01:45:26;;;;;;;28.83;5.88;;;7.40;99.90;;;;;;4771083;30;20059;-63
2022/05/08 01:50:37;;;;;;;29.42;6.93;;;7.40;99.90;;;;;;4771087;30;20054;-62
2022/05/08 01:53:03;;;;;;;25.42;5.97;;;7.30;99.90;;;;;;4770268;30;20495;-63
2022/05/08 01:55:28;;;;;;;25.50;6.05;;;7.60;99.90;;;;;;4770989;30;20145;-63
2022/05/08 01:57:56;;;;;;;27.30;5.90;;;7.20;99.90;;;;;;4771259;30;20098;-62
2022/05/08 02:00:22;;;;;;;33.53;6.72;;;7.40;99.90;;;;;;4770995;30;20504;-63
2022/05/08 02:02:49;;;;;;;28.23;6.18;;;7.50;99.90;;;;;;4770630;30;20056;-62
2022/05/08 02:05:19;;;;;;;35.38;6.80;;;7.30;99.90;;;;;;4770522;30;20519;-62
2022/05/08 02:07:45;;;;;;;30.20;6.80;;;7.30;99.90;;;;;;4770519;30;20048;-62
2022/05/08 02:10:13;;;;;;;27.35;6.47;;;7.30;99.90;;;;;;4770179;30;20048;-62
2022/05/08 02:12:40;;;;;;;27.55;6.43;;;7.40;99.90;;;;;;4770545;30;20459;-62
2022/05/08 02:15:08;;;;;;;28.35;6.85;;;7.30;99.90;;;;;;4770512;30;20408;-63
2022/05/08 02:17:34;;;;;;;26.90;6.68;;;7.10;99.90;;;;;;4754600;30;20062;-62
2022/05/08 02:19:59;;;;;;;29.63;6.38;;;7.10;99.90;;;;;;4770677;30;20066;-62
2022/05/08 02:22:25;;;;;;;28.55;6.18;;;6.90;99.90;;;;;;4754342;30;20055;-62
2022/05/08 02:24:51;;;;;;;25.90;6.30;;;7.00;99.90;;;;;;4770207;30;20064;-62
2022/05/08 02:27:19;;;;;;;25.35;6.72;;;6.80;99.90;;;;;;4770108;30;20575;-62
2022/05/08 02:29:50;;;;;;;22.98;6.10;;;6.80;99.90;;;;;;4770083;30;20134;-62
2022/05/08 02:32:16;;;;;;;23.70;6.20;;;6.80;99.90;;;;;;4770324;30;20126;-62
2022/05/08 02:34:43;;;;;;;22.10;5.80;;;6.60;99.90;;;;;;4770202;30;20506;-62
2022/05/08 02:37:09;;;;;;;19.58;5.95;;;7.00;99.90;;;;;;4770017;30;20484;-62
2022/05/08 02:39:34;;;;;;;25.20;6.30;;;6.30;99.90;;;;;;4769989;30;20570;-62
2022/05/08 02:42:00;;;;;;;26.58;6.57;;;;;;;;;;4769883;30;20048;-62
2022/05/08 02:44:26;;;;;;;28.08;6.63;;;6.30;99.90;;;;;;4770237;30;20112;-62
2022/05/08 02:46:52;;;;;;;26.70;6.47;;;6.30;99.90;;;;;;4769846;30;20052;-62
2022/05/08 02:49:18;;;;;;;27.60;6.43;;;6.70;99.90;;;;;;4754144;30;20058;-62
2022/05/08 02:51:43;;;;;;;27.45;6.45;;;6.40;99.90;;;;;;4769851;30;20485;-62
2022/05/08 02:54:10;;;;;;;25.30;6.65;;;;;;;;;;4769831;30;20597;-62
2022/05/08 02:59:19;;;;;;;27.75;6.40;;;6.50;99.90;;;;;;4771724;30;20090;-62
2022/05/08 03:01:45;;;;;;;23.45;6.47;;;6.10;99.90;;;;;;4773558;30;20507;-65
2022/05/08 03:04:11;;;;;;;24.33;6.78;;;6.60;99.90;;;;;;4773628;30;20122;-62
2022/05/08 03:06:38;;;;;;;31.92;7.63;;;;;;;;;;4757394;30;20055;-62
2022/05/08 03:09:04;;;;;;;28.45;6.85;;;6.30;99.90;;;;;;4773390;30;20160;-62
2022/05/08 03:11:32;;;;;;;29.25;6.82;;;6.00;99.90;;;;;;4773523;30;20052;-62
2022/05/08 03:13:59;;;;;;;26.65;6.72;;;6.20;99.90;;;;;;4773259;30;20052;-62
2022/05/08 03:16:28;;;;;;;27.00;6.93;;;5.90;99.90;;;;;;4757420;30;20408;-62
2022/05/08 03:18:55;;;;;;;26.65;7.40;;;6.60;99.90;;;;;;4773286;30;20074;-62
2022/05/08 03:21:21;;;;;;;33.75;7.32;;;6.00;99.90;;;;;;4757403;30;20487;-62
2022/05/08 03:23:48;;;;;;;32.17;7.20;;;6.00;99.90;;;;;;4773335;30;20066;-62
2022/05/08 03:26:14;;;;;;;30.75;7.55;;;6.10;99.90;;;;;;4773252;30;20048;-62
2022/05/08 03:28:42;;;;;;;27.30;7.65;;;5.60;99.90;;;;;;4773338;30;20056;-62
2022/05/08 03:31:09;;;;;;;23.70;7.10;;;5.90;99.90;;;;;;4773199;30;20052;-62
2022/05/08 03:33:36;;;;;;;25.08;7.40;;;6.10;99.90;;;;;;4773417;30;20472;-62
2022/05/08 03:36:03;;;;;;;25.13;6.68;;;6.00;99.90;;;;;;4772881;30;20187;-63
2022/05/08 03:38:30;;;;;;;22.48;6.90;;;6.00;99.90;;;;;;4773125;30;20052;-62
2022/05/08 03:40:56;;;;;;;22.45;6.90;;;5.40;99.90;;;;;;4772884;30;20056;-62
2022/05/08 03:43:22;;;;;;;29.77;7.32;;;5.90;99.90;;;;;;4757175;30;20404;-62
2022/05/08 03:45:49;;;;;;;35.88;8.05;;;5.80;99.90;;;;;;4772759;30;20055;-62
2022/05/08 03:48:15;;;;;;;26.77;7.93;;;5.70;99.90;;;;;;4772845;30;20059;-62
2022/05/08 03:50:41;;;;;;;28.15;7.25;;;5.80;99.90;;;;;;4772788;30;20190;-62
2022/05/08 03:53:07;;;;;;;24.23;7.15;;;5.80;99.90;;;;;;4756694;30;20051;-63
2022/05/08 03:55:33;;;;;;;25.55;7.25;;;5.90;99.90;;;;;;4772694;30;20074;-64
2022/05/08 03:57:59;;;;;;;27.65;7.55;;;6.20;99.90;;;;;;4772540;30;20052;-65
2022/05/08 04:00:25;;;;;;;30.85;7.60;;;;;;;;;;4741971;30;20067;-64
2022/05/08 04:02:54;;;;;;;26.73;7.88;;;5.80;99.90;;;;;;4772509;30;20058;-64
2022/05/08 04:05:21;;;;;;;27.27;7.00;;;;;;;;;;4772716;30;20056;-64
2022/05/08 04:07:46;;;;;;;23.88;6.72;;;5.40;99.90;;;;;;4772698;30;20062;-65
2022/05/08 04:10:12;;;;;;;25.08;7.80;;;5.90;99.90;;;;;;4771279;30;20419;-65
2022/05/08 04:12:39;;;;;;;28.05;7.70;;;5.80;99.90;;;;;;4772328;30;20445;-65
2022/05/08 04:16:15;;;;;;;27.38;7.20;;;5.70;99.90;;;;;;4756303;30;20079;-64
2022/05/08 04:17:51;;;;;;;28.33;7.05;;;5.70;99.90;;;;;;4772152;30;20056;-64
2022/05/08 04:20:17;;;;;;;29.55;7.65;;;5.80;99.90;;;;;;4772381;30;20113;-64
2022/05/08 04:25:27;;;;;;;30.35;8.07;;;5.20;99.90;;;;;;4756273;30;20055;-64
2022/05/08 04:27:53;;;;;;;28.83;7.45;;;;;;;;;;4772018;30;20055;-65
2022/05/08 04:30:19;;;;;;;23.75;7.38;;;;;;;;;;4771954;30;20059;-65
2022/05/08 04:32:45;;;;;;;26.35;7.25;;;5.70;99.90;;;;;;4771961;30;20051;-65
2022/05/08 04:35:10;;;;;;;24.00;7.68;;;5.50;99.90;;;;;;4771890;30;20058;-65
2022/05/08 04:37:36;;;;;;;26.45;8.20;;;6.00;99.90;;;;;;4772006;30;20051;-65
2022/05/08 04:40:02;;;;;;;22.98;6.72;;;;;;;;;;4771824;30;20055;-65
2022/05/08 04:42:28;;;;;;;27.45;8.10;;;;;;;;;;4755827;30;20064;-65
2022/05/08 04:44:54;;;;;;;18.52;6.53;;;7.80;99.90;;;;;;4770942;30;20051;-65
2022/05/08 04:47:23;;;;;;;19.80;7.07;;;8.50;99.90;;;;;;4771759;30;20048;-65
2022/05/08 04:49:49;;;;;;;24.83;6.78;;;8.90;99.90;;;;;;4771967;30;20055;-66
2022/05/08 04:52:15;;;;;;;25.50;6.75;;;9.80;99.90;;;;;;4771783;30;20051;-66
2022/05/08 04:54:41;;;;;;;18.55;6.20;;;;;;;;;;4771670;30;20074;-66
2022/05/08 04:57:07;;;;;;;19.55;6.10;;;;;;;;;;4755857;30;20056;-66
2022/05/08 04:59:32;;;;;;;24.77;6.18;;;10.70;99.90;;;;;;4771494;30;20048;-67
2022/05/08 05:01:58;;;;;;;21.20;6.15;;;11.00;99.90;;;;;;4755373;30;20055;-66
2022/05/08 05:04:27;;;;;;;23.88;6.03;;;10.60;99.90;;;;;;4771601;30;20059;-66
2022/05/08 05:06:53;;;;;;;21.48;6.25;;;10.70;99.90;;;;;;4771475;30;20052;-67
2022/05/08 05:09:18;;;;;;;17.60;6.00;;;10.60;99.90;;;;;;4771391;30;20052;-66
2022/05/08 05:11:44;;;;;;;22.42;6.70;;;10.90;99.90;;;;;;4771813;30;20105;-66
2022/05/08 05:14:10;;;;;;;20.02;6.35;;;11.70;99.90;;;;;;4771362;30;20099;-66
2022/05/08 05:16:35;;;;;;;22.70;6.38;;;12.30;99.90;;;;;;4771322;30;20134;-66
2022/05/08 05:19:01;;;;;;;22.02;5.90;;;13.30;99.90;;;;;;4771477;30;20134;-66
2022/05/08 05:21:27;;;;;;;18.00;5.35;;;14.30;99.90;;;;;;4770940;30;20139;-64
2022/05/08 05:23:53;;;;;;;18.45;5.55;;;;;;;;;;4771570;30;20079;-61
2022/05/08 05:26:19;;;;;;;20.38;5.20;;;15.40;99.90;;;;;;4755034;30;20071;-62
2022/05/08 05:28:44;;;;;;;16.25;5.03;;;15.20;99.90;;;;;;4754968;30;20051;-62
2022/05/08 05:31:12;;;;;;;17.45;5.05;;;;;;;;;;4754913;30;20056;-62
2022/05/08 05:33:38;;;;;;;15.80;4.93;;;;;;;;;;4769702;30;20059;-62
2022/05/08 05:36:04;;;;;;;16.02;4.85;;;16.70;95.40;;;;;;4770782;30;20062;-62
2022/05/08 05:38:30;;;;;;;19.65;4.82;;;17.20;95.10;;;;;;4771134;30;20056;-62
2022/05/08 05:40:56;;;;;;;14.73;4.78;;;;;;;;;;4770712;30;20074;-62
2022/05/08 05:43:22;;;;;;;16.70;4.78;;;;;;;;;;4770972;30;20143;-62
2022/05/08 05:47:49;;;;;;;13.88;4.88;;;17.70;91.90;;;;;;4770994;30;20401;-65
2022/05/08 05:48:36;;;;;;;16.63;5.20;;;18.70;90.00;;;;;;4770730;30;20488;-66
2022/05/08 05:51:02;;;;;;;16.15;4.47;;;19.20;87.30;;;;;;4770548;30;20140;-66
2022/05/08 05:53:27;;;;;;;12.50;3.95;;;18.70;84.60;;;;;;4770512;30;20085;-66
2022/05/08 05:55:57;;;;;;;12.38;4.38;;;19.80;66.70;;;;;;4770856;30;20059;-66
2022/05/08 05:58:23;;;;;;;14.80;4.53;;;20.00;79.60;;;;;;4770579;30;20055;-66
2022/05/08 06:00:49;;;;;;;14.70;4.38;;;;;;;;;;4770871;30;20055;-66
2022/05/08 06:03:15;;;;;;;14.38;4.25;;;21.40;75.90;;;;;;4770855;30;20051;-66
2022/05/08 06:05:41;;;;;;;14.38;4.07;;;20.90;73.50;;;;;;4770414;30;20155;-66
2022/05/08 06:08:07;;;;;;;11.63;3.70;;;20.90;72.10;;;;;;4770352;30;20201;-66
2022/05/08 06:10:33;;;;;;;13.10;3.80;;;21.20;71.40;;;;;;4770876;30;20051;-66
2022/05/08 06:12:59;;;;;;;14.27;3.95;;;21.30;71.00;;;;;;4778319;30;20051;-66
2022/05/08 06:15:25;;;;;;;9.73;3.58;;;20.60;69.80;;;;;;4771336;30;20121;-66
2022/05/08 06:17:51;;;;;;;14.63;3.72;;;;;;;;;;4754372;30;20146;-66
2022/05/08 06:20:17;;;;;;;8.23;3.47;;;;;;;;;;4770398;30;20048;-67
2022/05/08 06:22:44;;;;;;;13.13;3.65;;;21.30;68.90;;;;;;4770297;30;20492;-65
2022/05/08 06:25:09;;;;;;;13.98;3.53;;;20.80;68.40;;;;;;4770446;30;20136;-64
2022/05/08 06:27:36;;;;;;;11.10;3.45;;;;;;;;;;4769139;30;20091;-65
2022/05/08 06:30:01;;;;;;;14.13;3.42;;;21.20;67.60;;;;;;4754217;30;20058;-65
2022/05/08 06:32:27;;;;;;;19.13;3.25;;;21.00;66.90;;;;;;4754211;30;20048;-64
2022/05/08 06:34:53;;;;;;;12.30;3.08;;;20.80;66.40;;;;;;4753565;30;20051;-65
2022/05/08 06:37:18;;;;;;;16.15;3.40;;;20.30;66.90;;;;;;4770126;30;20131;-65
2022/05/08 06:39:44;;;;;;;10.15;3.03;;;20.50;56.40;;;;;;4754397;30;20506;-64
2022/05/08 06:42:10;;;;;;;10.70;2.90;;;21.10;66.30;;;;;;4770007;30;20063;-66
2022/05/08 06:44:36;;;;;;;10.77;3.05;;;20.30;65.50;;;;;;4754332;30;20142;-66
2022/05/08 06:47:02;;;;;;;13.77;3.10;;;20.20;66.60;;;;;;4770335;30;20059;-68
2022/05/08 06:49:28;;;;;;;12.93;2.92;;;;;;;;;;4770017;30;20386;-66
2022/05/08 06:51:53;;;;;;;11.35;3.08;;;19.40;67.80;;;;;;4753974;30;20062;-69
2022/05/08 06:54:19;;;;;;;13.40;3.10;;;19.80;67.40;;;;;;4770248;30;20056;-66
2022/05/08 06:56:45;;;;;;;15.30;3.15;;;19.50;66.50;;;;;;4754198;30;20404;-66
2022/05/08 07:01:56;;;;;;;13.20;2.90;;;19.80;66.20;;;;;;4754050;30;20051;-67
2022/05/08 07:04:21;;;;;;;12.80;2.90;;;18.90;66.70;;;;;;4769824;30;20047;-66
2022/05/08 07:06:51;;;;;;;15.07;3.05;;;18.00;69.20;;;;;;4772393;30;20047;-65
2022/05/08 07:09:16;;;;;;;10.57;2.80;;;16.90;72.00;;;;;;4769646;30;20471;-65
2022/05/08 07:11:45;;;;;;;13.57;3.15;;;15.70;74.60;;;;;;4753833;30;20087;-66
2022/05/08 07:14:11;;;;;;;13.60;2.92;;;;;;;;;;4769824;30;20441;-66
2022/05/08 07:16:37;;;;;;;11.55;3.00;;;;;;;;;;4753820;30;20060;-66
2022/05/08 07:19:03;;;;;;;12.20;3.03;;;14.80;84.10;;;;;;4767867;30;20138;-66
2022/05/08 07:21:29;;;;;;;9.55;2.72;;;;;;;;;;4746126;30;20178;-66
2022/05/08 07:23:55;;;;;;;10.07;2.75;;;14.20;89.00;;;;;;4752756;30;20130;-66
2022/05/08 07:26:21;;;;;;;9.57;2.95;;;14.10;90.40;;;;;;4752460;30;20047;-66
2022/05/08 07:28:46;;;;;;;19.42;3.50;;;13.90;90.40;;;;;;4752506;30;20578;-66
2022/05/08 07:31:12;;;;;;;13.10;2.78;;;13.60;88.40;;;;;;4768622;30;20052;-66
2022/05/08 07:33:39;;;;;;;10.00;2.67;;;13.90;77.90;;;;;;4752390;30;20120;-65
2022/05/08 07:36:14;;;;;;;16.85;3.25;;;14.70;86.60;;;;;;4754053;30;20083;-66
2022/05/08 07:38:44;;;;;;;;;;;14.80;77.30;;;;;;4778856;29;20101;-65
2022/05/08 07:41:11;;;;;;;12.82;3.22;;;14.80;87.40;;;;;;4768812;30;19926;-66
2022/05/08 07:43:38;;;;;;;9.70;2.72;;;;;;;;;;4768281;30;20060;-66
2022/05/08 07:46:04;;;;;;;13.20;2.80;;;14.40;76.80;;;;;;4771156;30;20143;-66
2022/05/08 07:48:30;;;;;;;11.68;3.00;;;14.60;88.90;;;;;;4755694;30;20436;-66
2022/05/08 07:50:57;;;;;;;9.07;2.72;;;14.20;90.00;;;;;;4756176;30;20060;-66
2022/05/08 07:53:23;;;;;;;14.98;2.95;;;14.20;91.40;;;;;;4771332;30;20082;-65
2022/05/08 07:55:52;;;;;;;12.15;2.80;;;14.00;91.70;;;;;;4772012;30;20386;-65
2022/05/08 07:58:21;;;;;;;11.82;3.25;;;14.40;91.70;;;;;;4769295;30;20052;-66
2022/05/08 08:00:49;;;;;;;11.90;3.05;;;;;;;;;;4771650;30;20098;-65
2022/05/08 08:03:15;;;;;;;13.63;2.88;;;;;;;;;;4771365;30;20054;-65
2022/05/08 08:05:41;;;;;;;15.85;3.03;;;;;;;;;;4771517;30;20055;-66
2022/05/08 08:08:07;;;;;;;14.38;2.88;;;14.30;92.80;;;;;;4772154;30;20413;-65
2022/05/08 08:10:33;;;;;;;11.23;3.10;;;;;;;;;;4781628;30;20051;-65
2022/05/08 08:12:58;;;;;;;17.17;3.42;;;14.50;91.60;;;;;;4771706;30;20052;-66
2022/05/08 08:15:24;;;;;;;13.90;3.20;;;14.10;90.50;;;;;;4771090;30;20057;-66
2022/05/08 08:17:50;;;;;;;12.77;3.03;;;14.70;92.30;;;;;;4770637;30;20504;-65
2022/05/08 08:20:16;;;;;;;12.18;3.17;;;;;;;;;;4771041;30;20056;-66
2022/05/08 08:22:42;;;;;;;11.73;3.08;;;;;;;;;;4771583;30;20051;-65
2022/05/08 08:25:08;;;;;;;14.88;3.22;;;14.10;91.80;;;;;;4770087;30;20062;-66
2022/05/08 08:27:33;;;;;;;12.00;3.05;;;14.30;93.20;;;;;;4784895;30;20134;-66
2022/05/08 08:30:01;;;;;;;13.55;3.25;;;14.20;88.80;;;;;;4755304;30;20071;-66
2022/05/08 08:32:27;;;;;;;9.98;2.95;;;14.20;89.80;;;;;;4771205;30;20416;-66
2022/05/08 08:34:54;;;;;;;13.27;3.05;;;14.60;89.20;;;;;;4771157;30;20044;-65
2022/05/08 08:37:20;;;;;;;11.65;3.50;;;15.00;93.70;;;;;;4770995;30;20512;-65
2022/05/08 08:39:46;;;;;;;11.38;2.95;;;;;;;;;;4769793;30;20052;-65
2022/05/08 08:42:27;;;;;;;12.52;2.90;;;15.10;76.40;;;;;;4771007;30;20043;-65
2022/05/08 08:47:49;;;;;;;10.18;2.70;;;15.70;90.60;;;;;;4771122;30;20108;-65
2022/05/08 08:50:16;;;;;;;11.00;2.80;;;15.10;90.00;;;;;;4769451;30;20051;-65
2022/05/08 08:52:43;;;;;;;12.50;3.00;;;15.90;89.30;;;;;;4770998;30;20132;-66
2022/05/08 08:55:09;;;;;;;10.32;2.70;;;16.00;80.00;;;;;;4755123;30;20408;-65
2022/05/08 08:57:36;;;;;;;12.95;3.20;;;;;;;;;;4769952;30;20474;-65
2022/05/08 09:00:03;;;;;;;13.02;3.00;;;15.10;73.60;;;;;;4771407;30;20047;-66
2022/05/08 09:02:29;;;;;;;9.27;2.92;;;;;;;;;;4770336;30;20431;-67
2022/05/08 09:04:55;;;;;;;12.52;2.88;;;15.00;90.40;;;;;;4770620;30;20512;-66
2022/05/08 09:07:42;;;;;;;10.50;3.03;;;15.00;76.50;;;;;;4769010;30;20135;-66
2022/05/08 09:10:10;;;;;;;12.45;2.90;;;15.60;90.60;;;;;;4760604;30;20075;-66
2022/05/08 09:12:36;;;;;;;12.23;3.20;;;15.70;90.30;;;;;;4770383;30;20047;-66
2022/05/08 09:15:24;;;;;;;13.40;3.00;;;16.20;88.00;;;;;;4784474;30;20083;-66
2022/05/08 09:17:53;;;;;;;13.93;2.85;;;16.10;71.50;;;;;;4770621;30;20134;-66
2022/05/08 09:20:42;;;;;;;10.90;3.28;;;16.60;85.80;;;;;;4770238;30;20056;-64
2022/05/08 09:23:21;;;;;;;9.93;2.80;;;16.10;84.70;;;;;;4769384;30;20584;-64
2022/05/08 09:25:51;;;;;;;12.00;3.13;;;16.10;85.80;;;;;;4770561;30;20056;-63
2022/05/08 09:28:28;;;;;;;9.15;2.95;;;16.10;86.70;;;;;;4753893;30;20048;-63
2022/05/08 09:31:03;;;;;;;13.32;3.20;;;15.90;83.40;;;;;;4770648;30;20051;-63
2022/05/08 09:33:37;;;;;;;14.93;3.20;;;15.60;84.50;;;;;;4769695;30;20414;-63
2022/05/08 09:36:05;;;;;;;10.80;3.08;;;15.40;86.50;;;;;;4770651;30;20286;-63
2022/05/08 09:38:46;;;;;;;11.20;2.90;;;15.60;72.50;;;;;;4769744;30;20063;-64
2022/05/08 09:41:17;;;;;;;14.02;2.97;;;15.30;71.50;;;;;;4770224;30;20135;-63
2022/05/08 09:43:44;;;;;;;13.90;3.13;;;;;;;;;;4757915;30;20135;-63
2022/05/08 09:46:10;;;;;;;13.32;3.25;;;16.00;84.60;;;;;;4750688;30;20122;-63
2022/05/08 09:48:36;;;;;;;15.85;3.17;;;15.80;72.70;;;;;;4753160;30;20048;-64
2022/05/08 09:51:05;;;;;;;11.80;2.72;;;15.10;85.60;;;;;;4752873;30;20052;-64
2022/05/08 09:53:32;;;;;;;10.95;2.78;;;16.00;85.60;;;;;;4752977;30;20195;-63
2022/05/08 09:56:00;;;;;;;10.60;2.85;;;15.80;67.90;;;;;;4753138;30;20063;-63
2022/05/08 09:58:26;;;;;;;13.15;2.80;;;16.00;83.30;;;;;;4766571;30;20060;-63
2022/05/08 10:00:54;;;;;;;11.32;2.72;;;16.20;68.50;;;;;;4752996;30;20149;-63
2022/05/08 10:03:23;;;;;;;11.07;3.10;;;16.30;67.40;;;;;;4751702;30;20067;-63
2022/05/08 10:05:50;;;;;;;13.27;3.38;;;16.40;78.30;;;;;;4752702;30;20056;-63
2022/05/08 10:08:18;;;;;;;8.73;3.10;;;16.40;68.90;;;;;;4752056;30;20067;-63
2022/05/08 10:13:58;;;;;;;10.55;3.05;;;17.00;81.60;;;;;;4770795;30;20052;-64
2022/05/08 10:17:04;;;;;;;14.30;2.90;;;16.30;79.90;;;;;;4757035;30;20048;-64
2022/05/08 10:19:30;;;;;;;10.27;2.90;;;16.20;80.70;;;;;;4778283;30;20121;-64
2022/05/08 10:21:55;;;;;;;13.13;3.10;;;16.60;79.50;;;;;;4785324;30;20476;-64
2022/05/08 10:24:28;;;;;;;12.93;3.17;;;16.50;77.60;;;;;;4785681;30;20063;-64
2022/05/08 10:27:16;;;;;;;13.15;3.10;;;16.00;76.80;;;;;;4752670;30;20378;-64
2022/05/08 10:29:57;;;;;;;10.75;2.83;;;16.30;78.50;;;;;;4752555;30;20141;-64
2022/05/08 10:32:35;;;;;;;11.85;2.80;;;15.90;76.50;;;;;;4752489;30;20055;-64
2022/05/08 10:35:10;;;;;;;12.02;2.60;;;17.00;76.70;;;;;;4752507;30;20096;-64
2022/05/08 10:37:37;;;;;;;12.40;2.65;;;16.40;75.60;;;;;;4742628;30;20074;-64
2022/05/08 10:40:24;;;;;;;12.50;3.38;;;16.40;76.10;;;;;;4767020;30;20213;-64
2022/05/08 10:42:58;;;;;;;13.57;2.92;;;16.70;61.50;;;;;;4766765;30;20051;-64
2022/05/08 10:45:30;;;;;;;16.07;2.60;;;16.20;74.40;;;;;;4751215;30;20481;-65
2022/05/08 10:47:57;;;;;;;18.35;2.80;;;16.90;74.00;;;;;;4766937;30;20692;-65
2022/05/08 10:50:22;;;;;;;14.15;2.97;;;17.00;60.60;;;;;;4767126;30;20059;-64
2022/05/08 10:52:50;;;;;;;13.10;2.90;;;16.60;58.60;;;;;;4768850;30;20048;-65
2022/05/08 10:55:17;;;;;;;9.93;2.60;;;16.70;71.40;;;;;;4768295;30;20447;-64
2022/05/08 10:57:45;;;;;;;11.15;2.80;;;16.90;71.80;;;;;;4769079;30;20189;-64
2022/05/08 11:00:12;;;;;;;8.93;2.50;;;16.70;57.40;;;;;;4776184;30;20046;-65
2022/05/08 11:02:38;;;;;;;11.30;3.00;;;16.90;71.70;;;;;;4779418;30;20051;-65
2022/05/08 11:05:04;;;;;;;8.93;2.53;;;17.20;71.80;;;;;;4778352;30;20048;-65
2022/05/08 11:07:30;;;;;;;10.68;2.72;;;16.80;72.40;;;;;;4755114;30;20056;-65
2022/05/08 11:09:56;;;;;;;14.82;3.00;;;16.50;71.00;;;;;;4769672;30;20056;-64
2022/05/08 11:12:21;;;;;;;12.82;3.20;;;16.50;72.10;;;;;;4769759;30;20055;-65
2022/05/08 11:14:47;;;;;;;13.13;3.00;;;16.70;67.30;;;;;;4770097;30;20155;-65
2022/05/08 11:17:16;;;;;;;9.32;2.80;;;16.90;58.00;;;;;;4769855;30;20055;-64
2022/05/08 11:19:57;;;;;;;7.32;2.50;;;17.20;71.50;;;;;;4770544;30;20090;-65
2022/05/08 11:22:23;;;;;;;14.35;3.15;;;;;;;;;;4769679;30;20063;-65
2022/05/08 11:24:49;;;;;;;10.70;2.80;;;17.10;71.40;;;;;;4769807;30;20111;-65
2022/05/08 11:27:15;;;;;;;10.05;2.70;;;17.50;71.60;;;;;;4770448;30;20052;-65
2022/05/08 11:29:50;;;;;;;13.35;2.75;;;18.10;71.90;;;;;;4768678;30;20047;-64
2022/05/08 11:38:05;;;;;;;10.75;2.42;;;17.50;66.30;;;;;;4769219;30;20063;-64
2022/05/08 11:40:31;;;;;;;14.63;3.08;;;17.20;70.50;;;;;;4758063;30;20063;-64
2022/05/08 11:42:57;;;;;;;10.30;2.78;;;17.00;70.80;;;;;;4771061;30;20390;-62
2022/05/08 11:45:23;;;;;;;16.75;2.90;;;17.20;69.90;;;;;;4772769;30;20058;-62
2022/05/08 11:47:53;;;;;;;11.75;3.22;;;17.20;55.60;;;;;;4741157;30;20405;-62
2022/05/08 11:50:20;;;;;;;9.38;2.70;;;17.40;70.40;;;;;;4755705;30;20586;-62
2022/05/08 11:52:45;;;;;;;14.35;2.80;;;17.60;66.10;;;;;;4771631;30;20413;-62
2022/05/08 11:55:12;;;;;;;10.55;2.80;;;;;;;;;;4772767;30;20052;-62
2022/05/08 11:57:43;;;;;;;12.45;3.00;;;18.50;58.90;;;;;;4756998;30;20580;-62
2022/05/08 12:00:11;;;;;;;10.95;2.80;;;18.40;69.20;;;;;;4772675;30;20175;-63
2022/05/08 12:02:48;;;;;;;10.40;2.90;;;18.00;67.80;;;;;;4772635;30;20639;-63
2022/05/08 12:05:22;;;;;;;9.82;2.85;;;17.60;67.90;;;;;;4772016;30;20060;-63
2022/05/08 12:07:48;;;;;;;12.57;2.90;;;;;;;;;;4772265;30;20063;-63
2022/05/08 12:10:16;;;;;;;13.45;3.25;;;17.80;69.40;;;;;;4772251;30;20062;-63
2022/05/08 12:12:42;;;;;;;10.02;2.70;;;18.10;69.20;;;;;;4772218;30;20059;-63
2022/05/08 12:15:08;;;;;;;15.23;2.95;;;18.00;63.10;;;;;;4756752;30;20074;-63
2022/05/08 12:17:39;;;;;;;11.00;3.03;;;17.70;70.10;;;;;;4772499;30;20500;-63
2022/05/08 12:20:12;;;;;;;14.30;2.95;;;17.90;69.10;;;;;;4771158;30;20047;-63
2022/05/08 12:22:38;;;;;;;11.60;2.78;;;18.90;64.60;;;;;;4772353;30;20062;-63
2022/05/08 12:25:05;;;;;;;14.23;2.78;;;18.70;67.80;;;;;;4772485;30;20095;-63
2022/05/08 12:27:31;;;;;;;8.20;2.70;;;18.60;54.90;;;;;;4772095;30;20291;-63
2022/05/08 12:29:57;;;;;;;9.45;2.80;;;18.50;66.10;;;;;;4772320;30;20527;-63
2022/05/08 12:32:27;;;;;;;12.23;3.10;;;18.60;66.20;;;;;;4771362;30;20079;-63
2022/05/08 12:34:54;;;;;;;15.48;3.15;;;18.30;67.50;;;;;;4772238;30;20059;-63
2022/05/08 12:37:21;;;;;;;17.45;3.33;;;19.50;69.00;;;;;;4772031;30;20060;-63
2022/05/08 12:39:47;;;;;;;14.98;2.83;;;18.90;68.30;;;;;;4772033;30;20132;-63
2022/05/08 12:42:13;;;;;;;9.75;3.05;;;19.10;66.40;;;;;;4772264;30;20047;-63
2022/05/08 12:44:39;;;;;;;9.10;3.08;;;18.80;63.80;;;;;;4772010;30;20105;-63
2022/05/08 12:47:08;;;;;;;11.93;3.15;;;18.40;54.90;;;;;;4771806;30;20056;-63
2022/05/08 12:49:37;;;;;;;11.90;2.72;;;18.60;64.40;;;;;;4771700;30;20127;-63
2022/05/08 12:52:05;;;;;;;10.32;2.67;;;18.40;64.80;;;;;;4771814;30;20131;-63
2022/05/08 12:54:31;;;;;;;13.57;3.05;;;17.80;63.80;;;;;;4772010;30;20126;-63
2022/05/08 12:56:58;;;;;;;10.10;3.08;;;18.30;56.80;;;;;;4771981;30;20086;-63
2022/05/08 13:02:13;;;;;;;13.48;3.20;;;18.60;65.50;;;;;;4758218;30;20059;-63
2022/05/08 13:04:40;;;;;;;9.52;2.53;;;18.80;64.50;;;;;;4755887;30;20117;-63
2022/05/08 13:07:06;;;;;;;13.27;3.50;;;18.60;52.80;;;;;;4771764;30;20060;-63
2022/05/08 13:09:32;;;;;;;62.10;4.25;;;18.80;65.20;;;;;;4770496;30;20090;-63
2022/05/08 13:12:01;;;;;;;15.45;3.38;;;18.80;65.30;;;;;;4771711;30;20059;-63
2022/05/08 13:14:29;;;;;;;15.70;2.95;;;19.20;64.20;;;;;;4771514;30;20055;-63
2022/05/08 13:16:55;;;;;;;11.90;3.00;;;18.70;64.70;;;;;;4771065;30;20578;-63
2022/05/08 13:19:21;;;;;;;12.10;3.03;;;18.30;64.30;;;;;;4771272;30;20055;-63
2022/05/08 13:21:47;;;;;;;12.85;2.80;;;19.50;66.10;;;;;;4755619;30;20074;-63
2022/05/08 13:24:12;;;;;;;6.80;2.47;;;19.70;66.20;;;;;;4755164;30;20082;-62